sensor_id;sensor_type;location;lat;lon;timestamp;temperature;humidity
41644;DHT22;44236;48.098;11.582;2023-03-21T00:01:32;20.90;46.10
41644;DHT22;44236;48.098;11.582;2023-03-21T00:03:58;20.90;46.00
41644;DHT22;44236;48.098;11.582;2023-03-21T00:06:24;20.80;46.20
41644;DHT22;44236;48.098;11.582;2023-03-21T00:08:50;20.80;46.10
41644;DHT22;44236;48.098;11.582;2023-03-21T00:11:16;20.80;46.00
41644;DHT22;44236;48.098;11.582;2023-03-21T00:13:41;20.80;46.10
41644;DHT22;44236;48.098;11.582;2023-03-21T00:16:13;20.80;46.60
41644;DHT22;44236;48.098;11.582;2023-03-21T00:18:44;20.80;46.10
41644;DHT22;44236;48.098;11.582;2023-03-21T00:21:13;20.70;46.00
41644;DHT22;44236;48.098;11.582;2023-03-21T00:23:42;20.70;46.10
41644;DHT22;44236;48.098;11.582;2023-03-21T00:26:09;20.70;46.00
41644;DHT22;44236;48.098;11.582;2023-03-21T00:28:36;20.70;46.00
41644;DHT22;44236;48.098;11.582;2023-03-21T00:31:02;20.70;46.00
41644;DHT22;44236;48.098;11.582;2023-03-21T00:33:27;20.70;46.10
41644;DHT22;44236;48.098;11.582;2023-03-21T00:35:55;20.70;46.10
41644;DHT22;44236;48.098;11.582;2023-03-21T00:38:22;20.60;46.10
41644;DHT22;44236;48.098;11.582;2023-03-21T00:40:48;20.60;46.10
41644;DHT22;44236;48.098;11.582;2023-03-21T00:43:15;20.60;46.00
41644;DHT22;44236;48.098;11.582;2023-03-21T00:45:42;20.60;46.10
41644;DHT22;44236;48.098;11.582;2023-03-21T00:48:08;20.60;46.10
41644;DHT22;44236;48.098;11.582;2023-03-21T00:50:34;20.60;46.00
41644;DHT22;44236;48.098;11.582;2023-03-21T00:53:00;20.60;46.10
41644;DHT22;44236;48.098;11.582;2023-03-21T00:55:26;20.50;46.00
41644;DHT22;44236;48.098;11.582;2023-03-21T00:57:51;20.50;45.60
41644;DHT22;44236;48.098;11.582;2023-03-21T01:00:17;20.50;46.10
41644;DHT22;44236;48.098;11.582;2023-03-21T01:02:43;20.50;46.10
41644;DHT22;44236;48.098;11.582;2023-03-21T01:05:26;20.50;46.00
41644;DHT22;44236;48.098;11.582;2023-03-21T01:08:12;20.50;46.10
41644;DHT22;44236;48.098;11.582;2023-03-21T01:10:40;20.40;46.10
41644;DHT22;44236;48.098;11.582;2023-03-21T01:13:08;20.40;46.10
41644;DHT22;44236;48.098;11.582;2023-03-21T01:15:34;20.50;46.20
41644;DHT22;44236;48.098;11.582;2023-03-21T01:18:00;20.40;46.30
41644;DHT22;44236;48.098;11.582;2023-03-21T01:20:26;20.40;46.20
41644;DHT22;44236;48.098;11.582;2023-03-21T01:22:52;20.40;46.20
41644;DHT22;44236;48.098;11.582;2023-03-21T01:25:18;20.40;46.20
41644;DHT22;44236;48.098;11.582;2023-03-21T01:27:44;20.40;46.10
41644;DHT22;44236;48.098;11.582;2023-03-21T01:30:10;20.30;46.10
41644;DHT22;44236;48.098;11.582;2023-03-21T01:32:35;20.30;46.30
41644;DHT22;44236;48.098;11.582;2023-03-21T01:35:01;20.30;46.20
41644;DHT22;44236;48.098;11.582;2023-03-21T01:37:27;20.40;46.40
41644;DHT22;44236;48.098;11.582;2023-03-21T01:39:52;20.30;46.30
41644;DHT22;44236;48.098;11.582;2023-03-21T01:42:18;20.40;46.40
41644;DHT22;44236;48.098;11.582;2023-03-21T01:45:02;20.30;46.20
41644;DHT22;44236;48.098;11.582;2023-03-21T01:47:29;20.30;46.40
41644;DHT22;44236;48.098;11.582;2023-03-21T01:49:58;20.30;46.30
41644;DHT22;44236;48.098;11.582;2023-03-21T01:52:31;20.30;46.20
41644;DHT22;44236;48.098;11.582;2023-03-21T01:54:58;20.30;46.30
41644;DHT22;44236;48.098;11.582;2023-03-21T01:57:31;20.30;46.40
41644;DHT22;44236;48.098;11.582;2023-03-21T02:00:00;20.20;46.30
41644;DHT22;44236;48.098;11.582;2023-03-21T02:02:36;20.20;46.30
41644;DHT22;44236;48.098;11.582;2023-03-21T02:05:15;20.20;46.40
41644;DHT22;44236;48.098;11.582;2023-03-21T02:07:42;20.20;46.50
41644;DHT22;44236;48.098;11.582;2023-03-21T02:10:11;20.20;46.40
41644;DHT22;44236;48.098;11.582;2023-03-21T02:12:37;20.20;46.30
41644;DHT22;44236;48.098;11.582;2023-03-21T02:15:05;20.20;46.40
41644;DHT22;44236;48.098;11.582;2023-03-21T02:29:04;20.10;46.10
41644;DHT22;44236;48.098;11.582;2023-03-21T02:32:03;20.20;46.50
41644;DHT22;44236;48.098;11.582;2023-03-21T02:34:51;20.20;46.60
41644;DHT22;44236;48.098;11.582;2023-03-21T02:42:25;20.10;46.50
41644;DHT22;44236;48.098;11.582;2023-03-21T02:44:57;20.20;46.60
41644;DHT22;44236;48.098;11.582;2023-03-21T02:47:40;20.10;46.60
41644;DHT22;44236;48.098;11.582;2023-03-21T02:50:14;20.10;46.60
41644;DHT22;44236;48.098;11.582;2023-03-21T02:52:44;20.10;46.60
41644;DHT22;44236;48.098;11.582;2023-03-21T02:55:14;20.10;46.60
41644;DHT22;44236;48.098;11.582;2023-03-21T02:57:44;20.10;46.50
41644;DHT22;44236;48.098;11.582;2023-03-21T03:00:15;20.10;46.80
41644;DHT22;44236;48.098;11.582;2023-03-21T03:02:41;20.10;46.70
41644;DHT22;44236;48.098;11.582;2023-03-21T03:05:17;20.10;46.80
41644;DHT22;44236;48.098;11.582;2023-03-21T03:16:12;20.00;46.70
41644;DHT22;44236;48.098;11.582;2023-03-21T03:23:51;20.10;46.80
41644;DHT22;44236;48.098;11.582;2023-03-21T03:26:44;20.00;46.70
41644;DHT22;44236;48.098;11.582;2023-03-21T03:29:14;20.00;46.80
41644;DHT22;44236;48.098;11.582;2023-03-21T03:34:34;20.00;46.80
41644;DHT22;44236;48.098;11.582;2023-03-21T03:37:06;20.00;46.70
41644;DHT22;44236;48.098;11.582;2023-03-21T03:39:38;20.00;46.80
41644;DHT22;44236;48.098;11.582;2023-03-21T03:42:14;20.00;46.70
41644;DHT22;44236;48.098;11.582;2023-03-21T03:44:41;20.00;46.90
41644;DHT22;44236;48.098;11.582;2023-03-21T03:47:27;20.00;46.80
41644;DHT22;44236;48.098;11.582;2023-03-21T03:50:13;20.00;46.80
41644;DHT22;44236;48.098;11.582;2023-03-21T03:52:48;20.00;46.80
41644;DHT22;44236;48.098;11.582;2023-03-21T03:55:18;20.00;46.80
41644;DHT22;44236;48.098;11.582;2023-03-21T03:57:46;20.00;46.80
41644;DHT22;44236;48.098;11.582;2023-03-21T04:00:14;20.00;46.90
41644;DHT22;44236;48.098;11.582;2023-03-21T04:02:41;20.00;46.80
41644;DHT22;44236;48.098;11.582;2023-03-21T04:05:08;20.00;46.80
41644;DHT22;44236;48.098;11.582;2023-03-21T04:07:34;20.00;46.90
41644;DHT22;44236;48.098;11.582;2023-03-21T04:09:59;20.00;46.90
41644;DHT22;44236;48.098;11.582;2023-03-21T04:12:25;20.00;46.90
41644;DHT22;44236;48.098;11.582;2023-03-21T04:14:51;20.00;46.90
41644;DHT22;44236;48.098;11.582;2023-03-21T04:17:17;20.00;46.90
41644;DHT22;44236;48.098;11.582;2023-03-21T04:19:44;20.00;46.90
41644;DHT22;44236;48.098;11.582;2023-03-21T04:22:11;20.00;46.80
41644;DHT22;44236;48.098;11.582;2023-03-21T04:24:37;20.00;46.40
41644;DHT22;44236;48.098;11.582;2023-03-21T04:27:04;20.00;46.90
41644;DHT22;44236;48.098;11.582;2023-03-21T04:29:30;20.00;46.90
41644;DHT22;44236;48.098;11.582;2023-03-21T04:31:56;20.00;47.10
41644;DHT22;44236;48.098;11.582;2023-03-21T04:34:22;20.00;47.00
41644;DHT22;44236;48.098;11.582;2023-03-21T04:36:51;19.90;47.20
41644;DHT22;44236;48.098;11.582;2023-03-21T04:39:18;20.00;47.40
41644;DHT22;44236;48.098;11.582;2023-03-21T04:41:45;20.00;47.10
41644;DHT22;44236;48.098;11.582;2023-03-21T04:44:12;19.90;46.80
41644;DHT22;44236;48.098;11.582;2023-03-21T04:46:38;20.00;46.80
41644;DHT22;44236;48.098;11.582;2023-03-21T04:49:04;19.90;46.80
41644;DHT22;44236;48.098;11.582;2023-03-21T04:51:31;19.90;46.80
41644;DHT22;44236;48.098;11.582;2023-03-21T04:53:57;19.90;46.80
41644;DHT22;44236;48.098;11.582;2023-03-21T04:56:27;19.90;46.90
41644;DHT22;44236;48.098;11.582;2023-03-21T04:59:09;19.90;46.80
41644;DHT22;44236;48.098;11.582;2023-03-21T05:01:35;19.90;46.80
41644;DHT22;44236;48.098;11.582;2023-03-21T05:04:01;19.90;46.80
41644;DHT22;44236;48.098;11.582;2023-03-21T05:06:28;19.90;46.90
41644;DHT22;44236;48.098;11.582;2023-03-21T05:08:56;19.90;46.80
41644;DHT22;44236;48.098;11.582;2023-03-21T05:11:26;19.90;47.30
41644;DHT22;44236;48.098;11.582;2023-03-21T05:13:52;19.90;46.80
41644;DHT22;44236;48.098;11.582;2023-03-21T05:16:18;19.90;46.80
41644;DHT22;44236;48.098;11.582;2023-03-21T05:18:43;19.90;46.80
41644;DHT22;44236;48.098;11.582;2023-03-21T05:21:09;19.90;46.70
41644;DHT22;44236;48.098;11.582;2023-03-21T05:23:36;19.90;46.80
41644;DHT22;44236;48.098;11.582;2023-03-21T05:26:06;19.90;46.80
41644;DHT22;44236;48.098;11.582;2023-03-21T05:28:32;19.90;46.90
41644;DHT22;44236;48.098;11.582;2023-03-21T05:31:02;20.90;47.10
41644;DHT22;44236;48.098;11.582;2023-03-21T05:33:27;19.90;46.80
41644;DHT22;44236;48.098;11.582;2023-03-21T05:35:53;19.90;46.80
41644;DHT22;44236;48.098;11.582;2023-03-21T05:38:20;19.90;46.90
41644;DHT22;44236;48.098;11.582;2023-03-21T05:40:49;19.90;46.80
41644;DHT22;44236;48.098;11.582;2023-03-21T05:43:15;19.90;46.80
41644;DHT22;44236;48.098;11.582;2023-03-21T05:45:41;19.90;46.80
41644;DHT22;44236;48.098;11.582;2023-03-21T05:48:08;19.90;46.20
41644;DHT22;44236;48.098;11.582;2023-03-21T05:50:33;19.90;46.60
41644;DHT22;44236;48.098;11.582;2023-03-21T05:52:59;20.00;46.20
41644;DHT22;44236;48.098;11.582;2023-03-21T05:55:25;20.00;46.40
41644;DHT22;44236;48.098;11.582;2023-03-21T05:57:50;20.00;46.60
41644;DHT22;44236;48.098;11.582;2023-03-21T06:00:17;20.10;46.40
41644;DHT22;44236;48.098;11.582;2023-03-21T06:02:43;20.00;46.30
41644;DHT22;44236;48.098;11.582;2023-03-21T06:05:09;20.10;47.00
41644;DHT22;44236;48.098;11.582;2023-03-21T06:07:35;20.10;47.10
41644;DHT22;44236;48.098;11.582;2023-03-21T06:10:02;20.00;46.70
41644;DHT22;44236;48.098;11.582;2023-03-21T06:12:28;20.10;47.20
41644;DHT22;44236;48.098;11.582;2023-03-21T06:14:54;19.50;44.20
41644;DHT22;44236;48.098;11.582;2023-03-21T06:17:19;18.50;44.90
41644;DHT22;44236;48.098;11.582;2023-03-21T06:19:45;18.50;45.90
41644;DHT22;44236;48.098;11.582;2023-03-21T06:22:11;18.70;46.30
41644;DHT22;44236;48.098;11.582;2023-03-21T06:24:37;18.90;46.60
41644;DHT22;44236;48.098;11.582;2023-03-21T06:27:02;19.10;46.60
41644;DHT22;44236;48.098;11.582;2023-03-21T06:29:28;19.30;46.50
41644;DHT22;44236;48.098;11.582;2023-03-21T06:31:53;19.30;46.40
41644;DHT22;44236;48.098;11.582;2023-03-21T06:34:19;19.40;46.20
41644;DHT22;44236;48.098;11.582;2023-03-21T06:36:45;19.50;46.20
41644;DHT22;44236;48.098;11.582;2023-03-21T06:39:11;19.60;46.10
41644;DHT22;44236;48.098;11.582;2023-03-21T06:41:37;19.60;46.10
41644;DHT22;44236;48.098;11.582;2023-03-21T06:44:03;19.60;46.20
41644;DHT22;44236;48.098;11.582;2023-03-21T06:46:29;19.70;46.10
41644;DHT22;44236;48.098;11.582;2023-03-21T06:48:55;19.70;46.00
41644;DHT22;44236;48.098;11.582;2023-03-21T06:51:20;19.70;46.00
41644;DHT22;44236;48.098;11.582;2023-03-21T06:53:46;19.80;46.10
41644;DHT22;44236;48.098;11.582;2023-03-21T06:56:13;19.80;46.10
41644;DHT22;44236;48.098;11.582;2023-03-21T06:58:39;19.80;46.10
41644;DHT22;44236;48.098;11.582;2023-03-21T07:01:05;19.80;46.00
41644;DHT22;44236;48.098;11.582;2023-03-21T07:03:31;19.80;46.10
41644;DHT22;44236;48.098;11.582;2023-03-21T07:05:57;19.90;46.20
41644;DHT22;44236;48.098;11.582;2023-03-21T07:08:23;19.90;46.40
41644;DHT22;44236;48.098;11.582;2023-03-21T07:10:49;19.90;46.20
41644;DHT22;44236;48.098;11.582;2023-03-21T07:13:15;19.90;46.40
41644;DHT22;44236;48.098;11.582;2023-03-21T07:15:41;19.90;45.80
41644;DHT22;44236;48.098;11.582;2023-03-21T07:18:08;19.90;46.40
41644;DHT22;44236;48.098;11.582;2023-03-21T07:20:34;19.90;46.50
41644;DHT22;44236;48.098;11.582;2023-03-21T07:23:02;19.90;46.60
41644;DHT22;44236;48.098;11.582;2023-03-21T07:25:28;19.90;46.60
41644;DHT22;44236;48.098;11.582;2023-03-21T07:27:54;20.00;46.70
41644;DHT22;44236;48.098;11.582;2023-03-21T07:30:20;20.00;46.70
41644;DHT22;44236;48.098;11.582;2023-03-21T07:32:46;19.90;46.70
41644;DHT22;44236;48.098;11.582;2023-03-21T07:35:14;20.00;46.60
41644;DHT22;44236;48.098;11.582;2023-03-21T07:37:40;19.90;46.60
41644;DHT22;44236;48.098;11.582;2023-03-21T07:40:07;20.00;46.70
41644;DHT22;44236;48.098;11.582;2023-03-21T07:42:39;19.90;46.60
41644;DHT22;44236;48.098;11.582;2023-03-21T07:45:05;19.90;46.60
41644;DHT22;44236;48.098;11.582;2023-03-21T07:47:32;19.90;46.60
41644;DHT22;44236;48.098;11.582;2023-03-21T07:49:58;20.00;46.70
41644;DHT22;44236;48.098;11.582;2023-03-21T07:52:23;20.00;46.70
41644;DHT22;44236;48.098;11.582;2023-03-21T07:57:15;20.00;46.20
41644;DHT22;44236;48.098;11.582;2023-03-21T07:59:42;20.00;46.70
41644;DHT22;44236;48.098;11.582;2023-03-21T08:02:13;20.00;46.70
41644;DHT22;44236;48.098;11.582;2023-03-21T08:04:39;20.00;46.70
41644;DHT22;44236;48.098;11.582;2023-03-21T08:07:05;20.00;46.70
41644;DHT22;44236;48.098;11.582;2023-03-21T08:09:30;19.90;46.70
41644;DHT22;44236;48.098;11.582;2023-03-21T08:11:56;19.90;46.60
41644;DHT22;44236;48.098;11.582;2023-03-21T08:14:22;20.00;46.70
41644;DHT22;44236;48.098;11.582;2023-03-21T08:16:48;20.00;46.70
41644;DHT22;44236;48.098;11.582;2023-03-21T08:19:13;20.00;46.70
41644;DHT22;44236;48.098;11.582;2023-03-21T08:21:40;20.00;46.70
41644;DHT22;44236;48.098;11.582;2023-03-21T08:24:06;20.00;46.70
41644;DHT22;44236;48.098;11.582;2023-03-21T08:26:32;20.00;46.70
41644;DHT22;44236;48.098;11.582;2023-03-21T08:28:59;20.00;46.60
41644;DHT22;44236;48.098;11.582;2023-03-21T08:31:24;20.00;46.60
41644;DHT22;44236;48.098;11.582;2023-03-21T08:33:50;20.00;46.80
41644;DHT22;44236;48.098;11.582;2023-03-21T08:36:19;20.00;46.50
41644;DHT22;44236;48.098;11.582;2023-03-21T08:38:45;20.00;46.60
41644;DHT22;44236;48.098;11.582;2023-03-21T08:41:13;20.00;46.70
41644;DHT22;44236;48.098;11.582;2023-03-21T08:43:39;20.00;46.60
41644;DHT22;44236;48.098;11.582;2023-03-21T08:46:05;20.00;46.70
41644;DHT22;44236;48.098;11.582;2023-03-21T08:48:31;20.00;46.70
41644;DHT22;44236;48.098;11.582;2023-03-21T08:50:59;20.00;46.80
41644;DHT22;44236;48.098;11.582;2023-03-21T08:53:25;20.00;46.30
41644;DHT22;44236;48.098;11.582;2023-03-21T08:55:51;20.00;46.40
41644;DHT22;44236;48.098;11.582;2023-03-21T08:58:16;20.00;46.30
41644;DHT22;44236;48.098;11.582;2023-03-21T09:00:42;20.00;46.80
41644;DHT22;44236;48.098;11.582;2023-03-21T09:03:07;20.00;46.70
41644;DHT22;44236;48.098;11.582;2023-03-21T09:05:33;20.00;46.80
41644;DHT22;44236;48.098;11.582;2023-03-21T09:08:01;20.00;46.70
41644;DHT22;44236;48.098;11.582;2023-03-21T09:10:28;20.00;46.70
41644;DHT22;44236;48.098;11.582;2023-03-21T09:12:54;20.00;46.70
41644;DHT22;44236;48.098;11.582;2023-03-21T09:15:22;20.00;46.80
41644;DHT22;44236;48.098;11.582;2023-03-21T09:17:49;20.00;46.70
41644;DHT22;44236;48.098;11.582;2023-03-21T09:20:18;20.00;46.70
41644;DHT22;44236;48.098;11.582;2023-03-21T09:22:48;20.00;46.70
41644;DHT22;44236;48.098;11.582;2023-03-21T09:25:15;20.10;46.70
41644;DHT22;44236;48.098;11.582;2023-03-21T09:27:42;20.00;46.70
41644;DHT22;44236;48.098;11.582;2023-03-21T09:30:11;20.10;46.80
41644;DHT22;44236;48.098;11.582;2023-03-21T09:32:37;20.10;46.70
41644;DHT22;44236;48.098;11.582;2023-03-21T09:35:03;20.00;46.70
41644;DHT22;44236;48.098;11.582;2023-03-21T09:37:30;20.00;46.70
41644;DHT22;44236;48.098;11.582;2023-03-21T09:39:57;20.00;46.70
41644;DHT22;44236;48.098;11.582;2023-03-21T09:45:46;20.10;46.70
41644;DHT22;44236;48.098;11.582;2023-03-21T09:48:55;20.10;46.70
41644;DHT22;44236;48.098;11.582;2023-03-21T09:51:15;20.10;46.60
41644;DHT22;44236;48.098;11.582;2023-03-21T09:53:44;20.10;46.60
41644;DHT22;44236;48.098;11.582;2023-03-21T09:56:11;20.10;46.70
41644;DHT22;44236;48.098;11.582;2023-03-21T09:58:39;20.10;46.60
41644;DHT22;44236;48.098;11.582;2023-03-21T10:03:47;20.10;46.70
41644;DHT22;44236;48.098;11.582;2023-03-21T10:06:15;20.10;46.60
41644;DHT22;44236;48.098;11.582;2023-03-21T10:08:44;20.10;46.60
41644;DHT22;44236;48.098;11.582;2023-03-21T10:13:43;20.10;46.60
41644;DHT22;44236;48.098;11.582;2023-03-21T10:16:16;20.10;46.50
41644;DHT22;44236;48.098;11.582;2023-03-21T10:18:44;20.10;46.50
41644;DHT22;44236;48.098;11.582;2023-03-21T10:21:22;20.10;46.10
41644;DHT22;44236;48.098;11.582;2023-03-21T10:23:49;20.10;46.50
41644;DHT22;44236;48.098;11.582;2023-03-21T10:26:18;20.10;46.40
41644;DHT22;44236;48.098;11.582;2023-03-21T10:28:46;20.10;46.50
41644;DHT22;44236;48.098;11.582;2023-03-21T10:31:18;20.10;46.50
41644;DHT22;44236;48.098;11.582;2023-03-21T10:33:48;20.10;46.50
41644;DHT22;44236;48.098;11.582;2023-03-21T10:36:21;20.10;46.50
41644;DHT22;44236;48.098;11.582;2023-03-21T10:38:53;20.10;46.50
41644;DHT22;44236;48.098;11.582;2023-03-21T10:41:19;20.10;46.00
41644;DHT22;44236;48.098;11.582;2023-03-21T10:44:01;20.20;46.50
41644;DHT22;44236;48.098;11.582;2023-03-21T10:46:28;20.20;46.50
41644;DHT22;44236;48.098;11.582;2023-03-21T10:48:53;20.20;46.40
41644;DHT22;44236;48.098;11.582;2023-03-21T10:51:26;20.20;46.20
41644;DHT22;44236;48.098;11.582;2023-03-21T10:54:03;20.20;46.30
41644;DHT22;44236;48.098;11.582;2023-03-21T10:56:34;20.20;46.40
41644;DHT22;44236;48.098;11.582;2023-03-21T10:59:01;20.20;46.40
41644;DHT22;44236;48.098;11.582;2023-03-21T11:01:35;20.20;46.40
41644;DHT22;44236;48.098;11.582;2023-03-21T11:04:16;20.20;46.40
41644;DHT22;44236;48.098;11.582;2023-03-21T11:06:49;20.20;46.40
41644;DHT22;44236;48.098;11.582;2023-03-21T11:09:21;20.20;46.20
41644;DHT22;44236;48.098;11.582;2023-03-21T11:12:02;20.20;46.30
41644;DHT22;44236;48.098;11.582;2023-03-21T11:14:38;20.20;46.30
41644;DHT22;44236;48.098;11.582;2023-03-21T11:20:09;20.30;45.70
41644;DHT22;44236;48.098;11.582;2023-03-21T11:22:41;20.30;46.10
41644;DHT22;44236;48.098;11.582;2023-03-21T11:25:17;20.30;45.90
41644;DHT22;44236;48.098;11.582;2023-03-21T11:27:49;20.30;45.70
41644;DHT22;44236;48.098;11.582;2023-03-21T11:30:24;20.30;45.80
41644;DHT22;44236;48.098;11.582;2023-03-21T11:32:54;20.30;45.80
41644;DHT22;44236;48.098;11.582;2023-03-21T11:35:38;20.30;45.70
41644;DHT22;44236;48.098;11.582;2023-03-21T11:38:05;20.30;46.00
41644;DHT22;44236;48.098;11.582;2023-03-21T11:40:57;20.30;46.10
41644;DHT22;44236;48.098;11.582;2023-03-21T11:43:31;20.40;46.00
41644;DHT22;44236;48.098;11.582;2023-03-21T11:46:12;20.40;46.00
41644;DHT22;44236;48.098;11.582;2023-03-21T11:48:46;20.40;45.80
41644;DHT22;44236;48.098;11.582;2023-03-21T11:56:43;20.40;46.50
41644;DHT22;44236;48.098;11.582;2023-03-21T12:04:45;20.40;47.40
41644;DHT22;44236;48.098;11.582;2023-03-21T12:09:47;20.30;43.80
41644;DHT22;44236;48.098;11.582;2023-03-21T12:17:57;20.30;42.90
41644;DHT22;44236;48.098;11.582;2023-03-21T12:21:05;20.30;45.10
41644;DHT22;44236;48.098;11.582;2023-03-21T12:28:44;20.20;41.10
41644;DHT22;44236;48.098;11.582;2023-03-21T12:34:08;20.20;43.60
41644;DHT22;44236;48.098;11.582;2023-03-21T12:39:38;20.20;41.00
41644;DHT22;44236;48.098;11.582;2023-03-21T12:47:36;20.20;43.50
41644;DHT22;44236;48.098;11.582;2023-03-21T12:50:33;20.30;43.80
41644;DHT22;44236;48.098;11.582;2023-03-21T12:53:43;20.30;43.40
41644;DHT22;44236;48.098;11.582;2023-03-21T12:56:09;20.30;43.30
41644;DHT22;44236;48.098;11.582;2023-03-21T12:58:48;20.30;43.20
41644;DHT22;44236;48.098;11.582;2023-03-21T13:01:15;20.30;40.10
41644;DHT22;44236;48.098;11.582;2023-03-21T13:03:47;20.30;40.60
41644;DHT22;44236;48.098;11.582;2023-03-21T13:06:16;20.30;42.30
41644;DHT22;44236;48.098;11.582;2023-03-21T13:11:29;20.30;43.50
41644;DHT22;44236;48.098;11.582;2023-03-21T13:14:11;20.30;40.10
41644;DHT22;44236;48.098;11.582;2023-03-21T13:16:38;20.30;40.90
41644;DHT22;44236;48.098;11.582;2023-03-21T13:22:10;20.30;42.60
41644;DHT22;44236;48.098;11.582;2023-03-21T13:24:41;20.30;42.90
41644;DHT22;44236;48.098;11.582;2023-03-21T13:27:33;20.30;42.60
41644;DHT22;44236;48.098;11.582;2023-03-21T13:32:43;20.30;41.10
41644;DHT22;44236;48.098;11.582;2023-03-21T13:35:23;20.30;41.30
41644;DHT22;44236;48.098;11.582;2023-03-21T13:38:02;20.30;41.00
41644;DHT22;44236;48.098;11.582;2023-03-21T13:40:43;20.30;41.30
41644;DHT22;44236;48.098;11.582;2023-03-21T13:43:32;20.30;41.30
41644;DHT22;44236;48.098;11.582;2023-03-21T13:46:07;20.30;41.30
41644;DHT22;44236;48.098;11.582;2023-03-21T13:51:12;20.30;40.70
41644;DHT22;44236;48.098;11.582;2023-03-21T13:53:42;20.30;41.50
41644;DHT22;44236;48.098;11.582;2023-03-21T13:56:23;20.30;40.90
41644;DHT22;44236;48.098;11.582;2023-03-21T13:58:51;20.30;41.50
41644;DHT22;44236;48.098;11.582;2023-03-21T14:06:47;20.30;40.40
41644;DHT22;44236;48.098;11.582;2023-03-21T14:09:19;20.30;40.00
41644;DHT22;44236;48.098;11.582;2023-03-21T14:11:46;20.30;40.30
41644;DHT22;44236;48.098;11.582;2023-03-21T14:14:13;20.30;40.10
41644;DHT22;44236;48.098;11.582;2023-03-21T14:16:40;20.30;38.90
41644;DHT22;44236;48.098;11.582;2023-03-21T14:19:06;20.30;39.50
41644;DHT22;44236;48.098;11.582;2023-03-21T14:21:34;20.30;40.40
41644;DHT22;44236;48.098;11.582;2023-03-21T14:24:10;20.30;41.10
41644;DHT22;44236;48.098;11.582;2023-03-21T14:26:41;20.30;40.50
41644;DHT22;44236;48.098;11.582;2023-03-21T14:29:08;20.30;39.60
41644;DHT22;44236;48.098;11.582;2023-03-21T14:31:38;20.20;38.60
41644;DHT22;44236;48.098;11.582;2023-03-21T14:34:05;20.30;39.70
41644;DHT22;44236;48.098;11.582;2023-03-21T14:36:32;20.30;39.90
41644;DHT22;44236;48.098;11.582;2023-03-21T14:39:05;20.30;38.90
41644;DHT22;44236;48.098;11.582;2023-03-21T14:41:33;20.30;39.80
41644;DHT22;44236;48.098;11.582;2023-03-21T14:44:24;20.30;40.30
41644;DHT22;44236;48.098;11.582;2023-03-21T14:49:31;20.30;39.40
41644;DHT22;44236;48.098;11.582;2023-03-21T14:52:00;20.30;38.90
41644;DHT22;44236;48.098;11.582;2023-03-21T14:54:26;20.20;38.20
41644;DHT22;44236;48.098;11.582;2023-03-21T14:57:00;20.20;38.50
41644;DHT22;44236;48.098;11.582;2023-03-21T14:59:31;20.20;38.90
41644;DHT22;44236;48.098;11.582;2023-03-21T15:02:00;20.20;38.50
41644;DHT22;44236;48.098;11.582;2023-03-21T15:04:28;20.20;38.90
41644;DHT22;44236;48.098;11.582;2023-03-21T15:06:59;20.10;38.80
41644;DHT22;44236;48.098;11.582;2023-03-21T15:09:30;20.10;39.40
41644;DHT22;44236;48.098;11.582;2023-03-21T15:11:57;20.10;40.20
41644;DHT22;44236;48.098;11.582;2023-03-21T15:14:27;20.10;40.60
41644;DHT22;44236;48.098;11.582;2023-03-21T15:16:53;20.20;40.90
41644;DHT22;44236;48.098;11.582;2023-03-21T15:19:26;20.20;41.30
41644;DHT22;44236;48.098;11.582;2023-03-21T15:21:58;20.20;41.80
41644;DHT22;44236;48.098;11.582;2023-03-21T15:24:31;20.20;41.90
41644;DHT22;44236;48.098;11.582;2023-03-21T15:27:12;20.30;41.40
41644;DHT22;44236;48.098;11.582;2023-03-21T15:29:39;20.20;38.80
41644;DHT22;44236;48.098;11.582;2023-03-21T15:32:12;20.10;38.20
41644;DHT22;44236;48.098;11.582;2023-03-21T15:34:40;20.00;38.00
41644;DHT22;44236;48.098;11.582;2023-03-21T15:37:21;20.00;37.90
41644;DHT22;44236;48.098;11.582;2023-03-21T15:39:47;20.00;37.80
41644;DHT22;44236;48.098;11.582;2023-03-21T15:42:28;19.90;37.70
41644;DHT22;44236;48.098;11.582;2023-03-21T15:44:57;19.90;38.00
41644;DHT22;44236;48.098;11.582;2023-03-21T15:47:39;19.80;38.20
41644;DHT22;44236;48.098;11.582;2023-03-21T15:50:07;19.70;38.00
41644;DHT22;44236;48.098;11.582;2023-03-21T15:52:35;19.80;38.60
41644;DHT22;44236;48.098;11.582;2023-03-21T15:55:00;19.70;38.60
41644;DHT22;44236;48.098;11.582;2023-03-21T15:57:31;19.70;38.40
41644;DHT22;44236;48.098;11.582;2023-03-21T16:00:21;19.70;38.50
41644;DHT22;44236;48.098;11.582;2023-03-21T16:02:48;19.70;38.80
41644;DHT22;44236;48.098;11.582;2023-03-21T16:07:49;19.70;38.60
41644;DHT22;44236;48.098;11.582;2023-03-21T16:10:30;19.70;38.70
41644;DHT22;44236;48.098;11.582;2023-03-21T16:12:57;19.60;38.60
41644;DHT22;44236;48.098;11.582;2023-03-21T16:15:24;19.60;38.90
41644;DHT22;44236;48.098;11.582;2023-03-21T16:17:56;19.70;39.00
41644;DHT22;44236;48.098;11.582;2023-03-21T16:20:26;19.70;39.00
41644;DHT22;44236;48.098;11.582;2023-03-21T16:22:53;19.60;39.10
41644;DHT22;44236;48.098;11.582;2023-03-21T16:25:18;19.60;39.20
41644;DHT22;44236;48.098;11.582;2023-03-21T16:27:45;19.60;39.40
41644;DHT22;44236;48.098;11.582;2023-03-21T16:30:17;19.50;39.50
41644;DHT22;44236;48.098;11.582;2023-03-21T16:32:43;19.50;39.50
41644;DHT22;44236;48.098;11.582;2023-03-21T16:35:09;19.50;39.80
41644;DHT22;44236;48.098;11.582;2023-03-21T16:37:35;19.40;39.90
41644;DHT22;44236;48.098;11.582;2023-03-21T16:42:26;19.40;40.00
41644;DHT22;44236;48.098;11.582;2023-03-21T16:44:52;19.40;40.20
41644;DHT22;44236;48.098;11.582;2023-03-21T16:47:20;19.30;40.10
41644;DHT22;44236;48.098;11.582;2023-03-21T16:49:47;19.30;40.10
41644;DHT22;44236;48.098;11.582;2023-03-21T16:52:13;19.30;40.20
41644;DHT22;44236;48.098;11.582;2023-03-21T16:54:40;19.30;40.30
41644;DHT22;44236;48.098;11.582;2023-03-21T16:57:07;19.30;40.20
41644;DHT22;44236;48.098;11.582;2023-03-21T16:59:36;19.30;39.80
41644;DHT22;44236;48.098;11.582;2023-03-21T17:02:14;19.30;40.10
41644;DHT22;44236;48.098;11.582;2023-03-21T17:04:41;19.40;41.10
41644;DHT22;44236;48.098;11.582;2023-03-21T17:07:11;19.50;41.30
41644;DHT22;44236;48.098;11.582;2023-03-21T17:09:42;19.60;41.20
41644;DHT22;44236;48.098;11.582;2023-03-21T17:12:13;19.70;41.20
41644;DHT22;44236;48.098;11.582;2023-03-21T17:14:43;19.70;41.30
41644;DHT22;44236;48.098;11.582;2023-03-21T17:17:11;19.80;41.60